Time;durP1;ratioP1;P1;durP2;ratioP2;P2;SDS_P1;SDS_P2;PMS_P1;PMS_P2;Temp;Humidity;BMP_temperature;BMP_pressure;BME280_temperature;BME280_humidity;BME280_pressure;Samples;Min_cycle;Max_cycle;Signal;HPM_P1;HPM_P2
2023/06/02 00:02:16;;;;;;;7.10;5.70;;;17.50;92.40;;;;;;4965249;28;20444;-67
2023/06/02 00:04:42;;;;;;;5.97;5.37;;;17.40;94.00;;;;;;4965328;28;20188;-66
2023/06/02 00:07:08;;;;;;;5.90;5.33;;;17.20;96.00;;;;;;4971321;28;20570;-66
2023/06/02 00:09:39;;;;;;;5.87;5.30;;;17.10;93.60;;;;;;4972226;28;20271;-66
2023/06/02 00:12:05;;;;;;;5.27;4.73;;;17.20;94.40;;;;;;4971074;28;20794;-67
2023/06/02 00:14:31;;;;;;;7.07;5.57;;;17.00;95.50;;;;;;4970510;28;20913;-66
2023/06/02 00:17:00;;;;;;;6.30;5.70;;;17.10;93.60;;;;;;4969129;28;20968;-66
2023/06/02 00:19:30;;;;;;;6.20;5.60;;;17.00;93.50;;;;;;4970591;28;20443;-67
2023/06/02 00:22:05;;;;;;;5.03;4.63;;;17.00;93.50;;;;;;4970140;28;20448;-66
2023/06/02 00:24:31;;;;;;;6.10;5.57;;;16.90;94.40;;;;;;4968250;28;20438;-67
2023/06/02 00:26:57;;;;;;;5.20;4.70;;;17.00;92.10;;;;;;4971932;28;21485;-67
2023/06/02 00:29:23;;;;;;;7.77;5.40;;;17.10;91.10;;;;;;4972069;28;20180;-66
2023/06/02 00:31:48;;;;;;;8.00;5.57;;;17.00;92.40;;;;;;4971733;28;20180;-65
2023/06/02 00:34:14;;;;;;;6.90;6.20;;;17.00;92.10;;;;;;4971368;28;20842;-66
2023/06/02 00:36:39;;;;;;;7.03;5.60;;;16.90;93.40;;;;;;4960833;28;20239;-66
2023/06/02 00:39:05;;;;;;;8.07;6.27;;;16.80;93.50;;;;;;4969660;28;20198;-67
2023/06/02 00:41:31;;;;;;;6.37;5.77;;;16.80;93.00;;;;;;4970330;28;20180;-67
2023/06/02 00:43:57;;;;;;;8.23;5.67;;;16.70;93.30;;;;;;4971453;28;20564;-66
2023/06/02 00:46:22;;;;;;;5.67;4.90;;;16.70;92.40;;;;;;4971606;28;20464;-66
2023/06/02 00:48:52;;;;;;;6.23;5.63;;;16.70;91.90;;;;;;4959907;28;20697;-65
2023/06/02 00:51:18;;;;;;;7.10;5.97;;;16.70;92.40;;;;;;4962374;28;20226;-67
2023/06/02 00:53:45;;;;;;;5.90;5.30;;;16.70;91.70;;;;;;4972634;28;20485;-67
2023/06/02 00:56:16;;;;;;;5.90;5.30;;;16.70;92.10;;;;;;4971117;28;20593;-67
2023/06/02 00:58:44;;;;;;;6.60;5.03;;;16.60;92.90;;;;;;4973774;28;20438;-65
2023/06/02 01:01:10;;;;;;;6.53;5.80;;;16.60;93.30;;;;;;4969071;28;20435;-66
2023/06/02 01:03:37;;;;;;;7.70;5.90;;;16.50;91.40;;;;;;4969778;28;20443;-66
2023/06/02 01:06:05;;;;;;;7.67;5.90;;;16.70;91.40;;;;;;4969843;28;21378;-66
2023/06/02 01:08:33;;;;;;;7.53;5.90;;;16.70;91.00;;;;;;4971571;28;20940;-67
2023/06/02 01:10:59;;;;;;;6.27;5.57;;;16.70;91.70;;;;;;4971007;28;20440;-67
2023/06/02 01:13:25;;;;;;;5.60;4.97;;;16.70;93.30;;;;;;4959814;28;20435;-66
2023/06/02 01:15:50;;;;;;;7.73;6.13;;;16.70;93.10;;;;;;4967095;28;20534;-66
2023/06/02 01:18:25;;;;;;;5.70;5.20;;;16.50;95.10;;;;;;4970090;28;20177;-66
2023/06/02 01:20:57;;;;;;;8.60;6.10;;;16.50;97.40;;;;;;4969081;28;20221;-66
2023/06/02 01:23:34;;;;;;;6.00;5.50;;;16.30;97.60;;;;;;4969417;28;20455;-65
2023/06/02 01:26:00;;;;;;;6.17;5.67;;;16.10;99.60;;;;;;4962022;28;20455;-66
2023/06/02 01:28:26;;;;;;;6.90;6.30;;;15.90;99.90;;;;;;4967851;28;20857;-66
2023/06/02 01:30:57;;;;;;;6.17;5.53;;;15.90;99.90;;;;;;4971171;28;20438;-66
2023/06/02 01:33:49;;;;;;;7.03;6.43;;;15.80;99.90;;;;;;4971333;28;20494;-67
2023/06/02 01:36:19;;;;;;;6.83;5.93;;;15.80;99.90;;;;;;4948518;28;20475;-66
2023/06/02 01:38:46;;;;;;;6.20;5.60;;;15.70;99.90;;;;;;4968105;28;20842;-66
2023/06/02 01:41:13;;;;;;;6.07;5.47;;;15.70;99.90;;;;;;4970349;28;21008;-68
2023/06/02 01:43:40;;;;;;;6.73;5.00;;;15.70;99.90;;;;;;4969480;28;20534;-66
2023/06/02 01:46:06;;;;;;;5.60;5.20;;;15.60;99.90;;;;;;4970101;28;20550;-66
2023/06/02 01:48:32;;;;;;;7.90;6.63;;;15.60;99.90;;;;;;4964720;28;20441;-66
2023/06/02 01:50:57;;;;;;;7.10;5.53;;;15.60;99.90;;;;;;4968909;28;20808;-66
2023/06/02 01:53:26;;;;;;;7.33;6.70;;;15.50;99.90;;;;;;4970559;28;20184;-66
2023/06/02 01:55:52;;;;;;;7.30;5.93;;;15.50;99.90;;;;;;4969037;28;20204;-66
2023/06/02 01:58:18;;;;;;;6.60;6.00;;;15.60;99.90;;;;;;4971002;28;20444;-66
2023/06/02 02:00:43;;;;;;;7.67;5.80;;;15.60;99.90;;;;;;4968219;28;20497;-67
2023/06/02 02:03:09;;;;;;;10.57;6.40;;;15.50;99.90;;;;;;4975507;28;20180;-66
2023/06/02 02:05:35;;;;;;;9.77;5.90;;;15.40;99.90;;;;;;4964653;28;20216;-66
2023/06/02 02:08:00;;;;;;;9.13;6.30;;;15.30;99.90;;;;;;4973414;28;20219;-65
2023/06/02 02:10:26;;;;;;;8.63;6.60;;;15.30;99.90;;;;;;4973457;28;20176;-66
2023/06/02 02:12:52;;;;;;;8.73;6.30;;;15.30;99.90;;;;;;4961447;28;20277;-66
2023/06/02 02:15:17;;;;;;;8.60;6.37;;;15.30;99.90;;;;;;4972531;28;20195;-66
2023/06/02 02:17:47;;;;;;;8.60;6.80;;;15.30;99.90;;;;;;4973888;28;20204;-65
2023/06/02 02:20:18;;;;;;;7.40;6.70;;;15.20;99.90;;;;;;4972346;28;20204;-66
2023/06/02 02:22:45;;;;;;;7.70;7.00;;;15.20;99.90;;;;;;4968949;28;20746;-66
2023/06/02 02:25:11;;;;;;;7.17;6.50;;;15.20;99.90;;;;;;4964010;28;20439;-67
2023/06/02 02:27:37;;;;;;;6.17;5.57;;;15.30;99.90;;;;;;4965131;28;20476;-67
2023/06/02 02:30:04;;;;;;;7.23;5.83;;;15.20;99.90;;;;;;4968321;28;20543;-66
2023/06/02 02:32:30;;;;;;;7.30;6.50;;;15.20;99.90;;;;;;4974135;28;20458;-67
2023/06/02 02:34:56;;;;;;;7.70;6.27;;;15.20;99.90;;;;;;4973532;28;21015;-66
2023/06/02 02:37:22;;;;;;;7.90;7.10;;;15.10;99.90;;;;;;4967421;28;20456;-66
2023/06/02 02:39:47;;;;;;;7.67;6.97;;;15.00;99.90;;;;;;4972216;28;20996;-66
2023/06/02 02:42:13;;;;;;;7.47;6.77;;;14.90;99.90;;;;;;4972133;28;20275;-66
2023/06/02 02:44:38;;;;;;;8.63;7.00;;;14.90;99.90;;;;;;4974247;28;20202;-66
2023/06/02 02:47:04;;;;;;;8.00;6.03;;;14.90;99.90;;;;;;4954781;28;20214;-66
2023/06/02 02:49:30;;;;;;;9.93;6.57;;;14.80;99.90;;;;;;4970388;28;20196;-65
2023/06/02 02:51:56;;;;;;;9.93;8.93;;;14.80;99.90;;;;;;4973089;28;20438;-67
2023/06/02 02:54:23;;;;;;;7.87;6.27;;;14.80;99.90;;;;;;4974076;28;20219;-65
2023/06/02 02:56:48;;;;;;;7.33;6.10;;;14.70;99.90;;;;;;4973115;28;20466;-66
2023/06/02 02:59:15;;;;;;;7.73;6.97;;;14.80;99.90;;;;;;4978363;28;20431;-67
2023/06/02 03:01:44;;;;;;;6.93;6.33;;;14.70;99.90;;;;;;4971964;28;20243;-66
2023/06/02 03:04:18;;;;;;;8.10;6.60;;;14.70;99.90;;;;;;4969388;28;20447;-66
2023/06/02 03:06:45;;;;;;;7.83;7.00;;;14.60;99.90;;;;;;4972114;28;20839;-65
2023/06/02 03:09:11;;;;;;;7.53;6.87;;;14.70;99.90;;;;;;4972447;28;21193;-67
2023/06/02 03:11:37;;;;;;;10.70;7.43;;;14.80;99.90;;;;;;4963030;28;20445;-66
2023/06/02 03:14:02;;;;;;;7.83;6.37;;;14.80;99.90;;;;;;4966999;28;20491;-65
2023/06/02 03:16:28;;;;;;;9.10;6.80;;;14.90;99.90;;;;;;4972685;28;20219;-66
2023/06/02 03:18:55;;;;;;;7.30;6.50;;;15.00;99.90;;;;;;4971428;28;20193;-66
2023/06/02 03:21:22;;;;;;;11.03;7.20;;;15.00;99.90;;;;;;4971191;28;20820;-67
2023/06/02 03:23:49;;;;;;;8.90;6.27;;;15.00;99.90;;;;;;4971293;28;20447;-66
2023/06/02 03:26:14;;;;;;;8.23;7.00;;;15.10;99.90;;;;;;4964173;28;21059;-66
2023/06/02 03:28:41;;;;;;;8.97;6.63;;;15.00;99.90;;;;;;4969669;28;20523;-67
2023/06/02 03:31:07;;;;;;;9.67;7.40;;;14.90;99.90;;;;;;4971466;28;20655;-66
2023/06/02 03:33:32;;;;;;;8.17;6.80;;;15.00;99.90;;;;;;4973593;28;20431;-66
2023/06/02 03:35:58;;;;;;;8.87;6.63;;;14.80;99.90;;;;;;4974539;28;20207;-66
2023/06/02 03:38:23;;;;;;;8.30;7.00;;;14.80;99.90;;;;;;4970442;28;20176;-66
2023/06/02 03:40:49;;;;;;;11.53;6.97;;;14.70;99.90;;;;;;4971376;28;20189;-67
2023/06/02 03:43:14;;;;;;;7.07;6.47;;;14.70;99.90;;;;;;4968546;28;20176;-65
2023/06/02 03:45:40;;;;;;;8.57;7.60;;;14.80;99.90;;;;;;4973102;28;20254;-66
2023/06/02 03:48:05;;;;;;;9.40;7.40;;;14.70;99.90;;;;;;4972677;28;20200;-66
2023/06/02 03:50:31;;;;;;;9.37;8.27;;;14.60;99.90;;;;;;4968408;28;20173;-66
2023/06/02 03:52:56;;;;;;;11.50;7.43;;;14.60;99.90;;;;;;4972722;28;20267;-67
2023/06/02 03:55:23;;;;;;;11.77;7.50;;;14.70;99.90;;;;;;4972080;28;20542;-66
2023/06/02 03:57:49;;;;;;;9.93;8.10;;;14.70;99.90;;;;;;4972261;28;20222;-66
2023/06/02 04:00:15;;;;;;;10.13;7.67;;;14.60;99.90;;;;;;4973217;28;20501;-66
2023/06/02 04:02:40;;;;;;;8.17;7.07;;;14.60;99.90;;;;;;4970768;28;20202;-66
2023/06/02 04:05:06;;;;;;;8.90;7.67;;;14.60;99.90;;;;;;4973516;28;20184;-69
2023/06/02 04:07:32;;;;;;;8.20;7.43;;;14.60;99.90;;;;;;4970772;28;20211;-68
2023/06/02 04:09:57;;;;;;;7.50;6.80;;;14.70;99.90;;;;;;4972418;28;20180;-68
2023/06/02 04:12:22;;;;;;;8.67;7.77;;;14.70;99.90;;;;;;4972710;28;20534;-68
2023/06/02 04:14:48;;;;;;;8.23;7.43;;;14.70;99.90;;;;;;4976833;28;20184;-68
2023/06/02 04:17:13;;;;;;;11.27;8.37;;;14.80;99.90;;;;;;4972709;28;20216;-68
2023/06/02 04:19:39;;;;;;;9.60;7.70;;;14.90;99.90;;;;;;4971846;28;20180;-69
2023/06/02 04:22:05;;;;;;;8.27;7.47;;;15.00;99.90;;;;;;4969888;28;20181;-69
2023/06/02 04:24:30;;;;;;;11.53;7.93;;;15.00;99.90;;;;;;4969616;28;20188;-68
2023/06/02 04:26:56;;;;;;;9.87;7.23;;;15.10;99.90;;;;;;4965314;28;20490;-68
2023/06/02 04:29:22;;;;;;;9.87;7.60;;;15.20;99.90;;;;;;4966202;28;20176;-69
2023/06/02 04:31:48;;;;;;;18.43;8.30;;;15.40;99.90;;;;;;4969067;28;20218;-69
2023/06/02 04:34:13;;;;;;;9.50;8.37;;;15.30;99.90;;;;;;4971639;28;20829;-66
2023/06/02 04:36:40;;;;;;;8.73;7.97;;;15.40;99.90;;;;;;4968985;28;20620;-66
2023/06/02 04:39:07;;;;;;;9.40;7.43;;;15.30;99.90;;;;;;4960180;28;20191;-67
2023/06/02 04:41:33;;;;;;;11.17;8.43;;;15.40;99.90;;;;;;4967924;28;20498;-66
2023/06/02 04:43:58;;;;;;;9.37;8.47;;;15.40;99.90;;;;;;4969399;28;20447;-67
2023/06/02 04:46:26;;;;;;;9.43;8.47;;;15.50;99.90;;;;;;4970360;28;20697;-65
2023/06/02 04:48:52;;;;;;;8.70;7.90;;;15.70;99.90;;;;;;4968524;28;20188;-67
2023/06/02 04:51:19;;;;;;;9.37;8.40;;;15.70;99.90;;;;;;4969015;28;21086;-67
2023/06/02 04:53:44;;;;;;;17.83;8.77;;;15.70;99.90;;;;;;4971136;28;20440;-66
2023/06/02 04:56:10;;;;;;;9.63;8.63;;;15.70;99.90;;;;;;4971090;28;20459;-67
2023/06/02 04:58:36;;;;;;;17.77;9.50;;;15.60;99.90;;;;;;4970487;28;20176;-67
2023/06/02 05:01:02;;;;;;;9.43;8.07;;;15.60;99.90;;;;;;4967746;28;20173;-67
2023/06/02 05:03:27;;;;;;;12.30;8.60;;;15.50;99.90;;;;;;4967801;28;20447;-66
2023/06/02 05:05:53;;;;;;;10.23;8.33;;;15.60;99.90;;;;;;4969941;28;20203;-66
2023/06/02 05:08:19;;;;;;;10.33;9.33;;;15.80;99.90;;;;;;4971201;28;20258;-66
2023/06/02 05:10:44;;;;;;;10.23;8.80;;;15.80;99.90;;;;;;4969474;28;21627;-66
2023/06/02 05:13:10;;;;;;;10.63;8.63;;;15.90;99.90;;;;;;4962327;28;20188;-67
2023/06/02 05:15:35;;;;;;;10.20;9.20;;;16.00;99.90;;;;;;4975487;23;20192;-68
2023/06/02 05:18:01;;;;;;;10.37;8.50;;;15.80;99.90;;;;;;4964750;28;20203;-68
2023/06/02 05:20:26;;;;;;;12.87;8.70;;;16.00;99.90;;;;;;4966893;28;20200;-67
2023/06/02 05:22:52;;;;;;;10.43;9.20;;;16.10;99.90;;;;;;4969766;28;20271;-68
2023/06/02 05:25:17;;;;;;;10.33;8.43;;;16.10;99.90;;;;;;4969591;28;20188;-68
2023/06/02 05:27:43;;;;;;;9.83;8.20;;;16.30;99.90;;;;;;4969982;28;20722;-67
2023/06/02 05:30:09;;;;;;;12.43;9.40;;;16.20;99.90;;;;;;4969809;28;20180;-68
2023/06/02 05:32:34;;;;;;;11.13;9.00;;;16.30;99.90;;;;;;4971640;28;20545;-68
2023/06/02 05:35:00;;;;;;;10.67;9.50;;;16.40;99.90;;;;;;4968851;28;20185;-68
2023/06/02 05:37:25;;;;;;;9.67;8.73;;;16.40;99.90;;;;;;4975442;28;20567;-67
2023/06/02 05:39:52;;;;;;;10.20;8.23;;;16.40;99.90;;;;;;4974935;28;20188;-68
2023/06/02 05:42:18;;;;;;;12.73;9.17;;;16.60;99.90;;;;;;4975627;28;20203;-68
2023/06/02 05:44:44;;;;;;;8.00;7.27;;;16.70;99.90;;;;;;4973482;28;20444;-68
2023/06/02 05:47:09;;;;;;;10.47;9.30;;;16.80;99.90;;;;;;4975599;28;20243;-68
2023/06/02 05:49:35;;;;;;;11.50;9.80;;;16.80;99.90;;;;;;4974773;28;20238;-68
2023/06/02 05:52:00;;;;;;;11.00;9.00;;;17.00;99.90;;;;;;4975400;28;20218;-68
2023/06/02 05:54:26;;;;;;;10.40;9.40;;;17.10;99.90;;;;;;4975087;28;20291;-69
2023/06/02 05:56:51;;;;;;;16.80;10.27;;;17.00;99.90;;;;;;4975602;28;20200;-67
2023/06/02 05:59:17;;;;;;;12.13;9.80;;;17.00;99.90;;;;;;4977313;28;20216;-68
2023/06/02 06:01:42;;;;;;;10.20;9.13;;;17.00;99.90;;;;;;4976290;28;20184;-68
2023/06/02 06:04:08;;;;;;;10.77;9.27;;;17.10;99.90;;;;;;4974088;28;20181;-68
2023/06/02 06:06:36;;;;;;;10.40;9.13;;;17.30;99.90;;;;;;4973828;28;20239;-68
2023/06/02 06:09:01;;;;;;;10.30;8.90;;;17.40;99.90;;;;;;4955394;28;20184;-69
2023/06/02 06:11:27;;;;;;;9.10;8.30;;;17.50;99.90;;;;;;4973537;28;20446;-67
2023/06/02 06:13:52;;;;;;;9.33;7.90;;;17.70;99.90;;;;;;4974402;28;20180;-67
2023/06/02 06:16:18;;;;;;;9.33;8.43;;;17.90;99.90;;;;;;4974749;28;20588;-68
2023/06/02 06:18:44;;;;;;;11.47;9.37;;;18.10;99.90;;;;;;4973745;28;20567;-67
2023/06/02 06:21:09;;;;;;;11.23;9.63;;;18.00;99.90;;;;;;4974796;28;20180;-67
2023/06/02 06:23:35;;;;;;;9.47;8.57;;;18.20;99.90;;;;;;4975044;28;20172;-68
2023/06/02 06:26:00;;;;;;;15.00;8.70;;;18.30;99.90;;;;;;4973555;28;20231;-68
2023/06/02 06:28:26;;;;;;;12.40;9.00;;;18.40;99.90;;;;;;4973626;28;20183;-68
2023/06/02 06:30:51;;;;;;;9.53;8.60;;;18.50;99.90;;;;;;4970251;28;20270;-67
2023/06/02 06:33:17;;;;;;;10.83;9.73;;;18.70;99.90;;;;;;4973130;28;20180;-65
2023/06/02 06:35:42;;;;;;;12.20;9.13;;;18.80;99.90;;;;;;4970639;28;20197;-66
2023/06/02 06:38:08;;;;;;;12.07;9.37;;;18.70;99.90;;;;;;4971256;28;20191;-67
2023/06/02 06:40:34;;;;;;;10.33;9.27;;;18.70;99.90;;;;;;4969762;28;20183;-67
2023/06/02 06:42:59;;;;;;;10.33;9.30;;;18.70;99.90;;;;;;4971254;28;20184;-66
2023/06/02 06:45:25;;;;;;;10.50;9.67;;;18.90;99.90;;;;;;4964401;28;20676;-66
2023/06/02 06:47:50;;;;;;;11.47;10.30;;;18.70;99.90;;;;;;4967197;28;20216;-67
2023/06/02 06:50:16;;;;;;;12.83;10.27;;;19.00;99.90;;;;;;4971725;28;20185;-66
2023/06/02 06:52:45;;;;;;;10.40;9.37;;;19.10;99.90;;;;;;4971887;28;20263;-66
2023/06/02 06:55:10;;;;;;;11.40;10.20;;;19.20;99.90;;;;;;4970179;28;20176;-66
2023/06/02 06:57:36;;;;;;;10.53;9.43;;;19.20;99.90;;;;;;4969461;28;20474;-66
2023/06/02 07:00:03;;;;;;;13.33;10.20;;;19.10;99.90;;;;;;4972799;28;20184;-65
2023/06/02 07:02:29;;;;;;;11.40;9.30;;;19.00;99.90;;;;;;4970423;28;20524;-65
2023/06/02 07:04:54;;;;;;;12.17;9.40;;;18.80;99.90;;;;;;4967472;28;20433;-66
2023/06/02 07:07:20;;;;;;;11.90;10.80;;;19.00;99.90;;;;;;4968916;28;20200;-65
2023/06/02 07:09:47;;;;;;;10.00;8.90;;;18.80;99.90;;;;;;4957015;28;20603;-68
2023/06/02 07:12:13;;;;;;;11.13;10.03;;;18.80;99.90;;;;;;4970019;28;20190;-70
2023/06/02 07:14:38;;;;;;;9.77;8.17;;;19.10;99.90;;;;;;4971771;28;20439;-68
2023/06/02 07:17:04;;;;;;;10.27;9.33;;;19.40;99.90;;;;;;4968285;28;20258;-68
2023/06/02 07:19:30;;;;;;;10.87;9.00;;;19.70;99.90;;;;;;4959598;28;20177;-68
2023/06/02 07:21:55;;;;;;;10.13;9.13;;;19.90;99.90;;;;;;4970544;28;20447;-68
2023/06/02 07:24:21;;;;;;;10.60;9.20;;;20.20;99.90;;;;;;4970686;28;20214;-68
2023/06/02 07:26:46;;;;;;;9.40;8.47;;;20.20;99.90;;;;;;4970345;28;20294;-67
2023/06/02 07:29:12;;;;;;;10.77;9.77;;;20.30;99.90;;;;;;4973531;28;20275;-68
2023/06/02 07:31:37;;;;;;;10.20;9.20;;;20.20;99.90;;;;;;4971602;28;20184;-68
2023/06/02 07:34:03;;;;;;;10.33;9.33;;;20.30;99.90;;;;;;4973253;28;20168;-68
2023/06/02 07:36:29;;;;;;;9.93;8.90;;;20.40;99.90;;;;;;4966907;28;20193;-67
2023/06/02 07:38:54;;;;;;;9.93;8.77;;;20.20;99.90;;;;;;4961208;28;20713;-67
2023/06/02 07:41:20;;;;;;;10.23;9.23;;;20.20;99.90;;;;;;4967998;28;20424;-67
2023/06/02 07:43:46;;;;;;;10.00;9.00;;;20.10;99.90;;;;;;4954615;28;20196;-68
2023/06/02 07:46:12;;;;;;;11.33;9.50;;;20.40;99.90;;;;;;4957383;28;20208;-67
2023/06/02 07:48:37;;;;;;;9.33;8.50;;;20.60;99.90;;;;;;4972394;28;20672;-68
2023/06/02 07:51:03;;;;;;;9.47;8.57;;;20.80;99.90;;;;;;4975239;28;20183;-67
2023/06/02 07:53:29;;;;;;;10.97;9.40;;;21.00;99.90;;;;;;4970284;28;20186;-67
2023/06/02 07:55:55;;;;;;;12.57;9.67;;;21.30;99.90;;;;;;4973852;28;20200;-67
2023/06/02 07:58:21;;;;;;;9.17;8.37;;;21.40;99.90;;;;;;4969504;28;20511;-67
2023/06/02 08:00:48;;;;;;;9.23;8.43;;;21.60;99.90;;;;;;4972794;28;20506;-68
2023/06/02 08:03:13;;;;;;;8.53;7.80;;;21.70;99.90;;;;;;4973395;28;20176;-67
2023/06/02 08:05:39;;;;;;;9.57;8.57;;;21.70;99.90;;;;;;4972097;28;20502;-67
2023/06/02 08:08:05;;;;;;;8.90;8.07;;;21.70;99.90;;;;;;4965873;28;20196;-68
2023/06/02 08:10:30;;;;;;;10.40;9.30;;;21.70;99.90;;;;;;4973160;28;20259;-67
2023/06/02 08:12:56;;;;;;;8.77;7.97;;;21.70;99.60;;;;;;4972434;28;20180;-67
2023/06/02 08:15:21;;;;;;;9.30;8.40;;;21.70;99.70;;;;;;4972306;28;20319;-68
2023/06/02 08:17:48;;;;;;;9.50;8.60;;;21.60;99.90;;;;;;4973316;28;20240;-67
2023/06/02 08:20:16;;;;;;;9.70;8.70;;;21.90;99.70;;;;;;4971253;28;20176;-67
2023/06/02 08:22:41;;;;;;;11.03;9.07;;;22.00;99.90;;;;;;4972976;28;20419;-67
2023/06/02 08:25:07;;;;;;;9.70;8.83;;;21.80;98.90;;;;;;4973312;28;20510;-68
2023/06/02 08:27:33;;;;;;;7.97;7.20;;;22.00;99.30;;;;;;4976735;28;20258;-68
2023/06/02 08:29:59;;;;;;;10.10;7.80;;;22.10;98.80;;;;;;4970452;28;20204;-68
2023/06/02 08:32:26;;;;;;;9.73;8.80;;;22.20;98.20;;;;;;4960907;28;20182;-67
2023/06/02 08:34:51;;;;;;;9.53;8.63;;;22.20;98.70;;;;;;4972961;28;20474;-67
2023/06/02 08:37:17;;;;;;;9.50;8.40;;;22.20;98.10;;;;;;4972165;28;20875;-68
2023/06/02 08:39:50;;;;;;;8.53;7.83;;;22.30;97.10;;;;;;4972656;28;20644;-67
2023/06/02 08:42:16;;;;;;;8.90;8.00;;;22.70;97.00;;;;;;4974081;28;20439;-68
2023/06/02 08:44:43;;;;;;;9.63;7.97;;;22.80;96.30;;;;;;4974761;28;20805;-68
2023/06/02 08:47:12;;;;;;;10.10;9.10;;;23.00;95.20;;;;;;4960500;28;20460;-67
2023/06/02 08:49:48;;;;;;;10.53;8.97;;;22.70;95.50;;;;;;4964425;28;20423;-67
2023/06/02 08:52:25;;;;;;;13.00;8.83;;;22.90;95.20;;;;;;4972811;28;20447;-68
2023/06/02 08:54:51;;;;;;;9.93;8.20;;;23.10;95.10;;;;;;4975579;28;20430;-67
2023/06/02 08:57:20;;;;;;;10.70;9.70;;;23.30;94.80;;;;;;4967445;28;20503;-67
2023/06/02 08:59:46;;;;;;;8.97;8.20;;;22.70;95.00;;;;;;4965569;28;20184;-67
2023/06/02 09:02:13;;;;;;;9.30;8.50;;;22.60;95.50;;;;;;4970014;28;20444;-67
2023/06/02 09:04:39;;;;;;;10.37;9.07;;;22.70;95.60;;;;;;4972601;28;20485;-67
2023/06/02 09:07:25;;;;;;;8.80;7.93;;;23.30;95.00;;;;;;4971483;28;20546;-67
2023/06/02 09:09:53;;;;;;;8.97;8.03;;;23.50;93.90;;;;;;4972021;28;20188;-68
2023/06/02 09:12:19;;;;;;;10.50;8.80;;;23.60;93.30;;;;;;4977528;28;21033;-68
2023/06/02 09:14:47;;;;;;;9.60;8.67;;;23.40;93.00;;;;;;4979028;28;20431;-68
2023/06/02 09:17:30;;;;;;;8.47;7.10;;;23.30;93.20;;;;;;4977162;28;21038;-68
2023/06/02 09:20:11;;;;;;;8.90;8.00;;;23.40;93.80;;;;;;4971697;28;20451;-67
2023/06/02 09:22:56;;;;;;;10.03;9.20;;;23.90;92.80;;;;;;4970956;28;20435;-67
2023/06/02 09:25:29;;;;;;;8.70;7.90;;;24.30;91.30;;;;;;4974690;28;20846;-68
2023/06/02 09:27:56;;;;;;;10.33;9.20;;;24.20;90.90;;;;;;4977368;28;20691;-68
2023/06/02 09:30:23;;;;;;;9.73;8.70;;;24.10;91.20;;;;;;4976150;28;20443;-67
2023/06/02 09:32:56;;;;;;;9.87;9.07;;;24.50;90.30;;;;;;4977502;28;20439;-68
2023/06/02 09:35:41;;;;;;;9.07;8.27;;;24.90;89.40;;;;;;4975780;28;20474;-68
2023/06/02 09:38:10;;;;;;;9.57;8.53;;;25.00;87.00;;;;;;4971985;28;20445;-68
2023/06/02 09:40:35;;;;;;;12.63;9.03;;;25.40;87.00;;;;;;4974618;28;20442;-68
2023/06/02 09:43:03;;;;;;;8.50;7.80;;;25.30;86.00;;;;;;4974187;28;20889;-68
2023/06/02 09:45:29;;;;;;;11.60;10.60;;;25.40;86.70;;;;;;4969705;28;20180;-68
2023/06/02 09:47:54;;;;;;;9.10;8.40;;;25.50;85.30;;;;;;4983915;28;20465;-68
2023/06/02 09:50:35;;;;;;;9.53;8.73;;;26.30;84.30;;;;;;4978546;28;20419;-68
2023/06/02 09:53:10;;;;;;;11.23;8.97;;;26.70;80.30;;;;;;4978270;28;20168;-68
2023/06/02 09:55:36;;;;;;;11.50;8.77;;;26.40;79.60;;;;;;4972166;28;20853;-68
2023/06/02 09:58:06;;;;;;;10.27;9.27;;;27.00;78.50;;;;;;4978482;28;20427;-68
2023/06/02 10:00:32;;;;;;;10.60;9.60;;;27.70;75.90;;;;;;4978864;28;20446;-68
2023/06/02 10:02:58;;;;;;;9.77;8.20;;;27.50;75.50;;;;;;4978929;28;20865;-71
2023/06/02 10:05:24;;;;;;;9.90;8.90;;;27.30;74.70;;;;;;4978127;28;20432;-69
2023/06/02 10:08:04;;;;;;;10.23;9.37;;;28.20;73.00;;;;;;4984646;28;20475;-70
2023/06/02 10:10:48;;;;;;;9.30;8.50;;;29.00;69.60;;;;;;4963725;28;20203;-71
2023/06/02 10:13:35;;;;;;;10.00;9.20;;;29.40;67.80;;;;;;4968464;28;20427;-69
2023/06/02 10:16:16;;;;;;;10.30;9.30;;;29.70;67.10;;;;;;4984119;28;20485;-72
2023/06/02 10:19:20;;;;;;;9.23;8.53;;;29.40;66.50;;;;;;4969851;28;20484;-73
2023/06/02 10:22:07;;;;;;;9.50;8.30;;;30.30;64.40;;;;;;4929654;28;20515;-71
2023/06/02 10:25:02;;;;;;;10.27;9.37;;;31.10;59.70;;;;;;4956131;29;20439;-73
2023/06/02 10:27:34;;;;;;;9.93;9.03;;;31.20;58.20;;;;;;4960976;28;20814;-73
2023/06/02 10:30:01;;;;;;;9.80;8.80;;;31.10;57.50;;;;;;4972473;28;20511;-73
2023/06/02 10:32:41;;;;;;;9.50;8.70;;;31.30;57.60;;;;;;4956218;28;20435;-71
2023/06/02 10:35:07;;;;;;;11.57;9.30;;;31.30;56.80;;;;;;4956288;29;20416;-68
2023/06/02 10:37:34;;;;;;;9.63;8.70;;;32.20;55.40;;;;;;4956259;29;20511;-68
2023/06/02 10:39:59;;;;;;;8.27;7.60;;;32.60;53.10;;;;;;4962667;28;20490;-68
2023/06/02 10:42:27;;;;;;;8.43;7.83;;;32.30;52.70;;;;;;4974930;28;20428;-68
2023/06/02 10:45:20;;;;;;;7.90;7.20;;;32.90;51.30;;;;;;4975305;28;20180;-68
2023/06/02 10:47:46;;;;;;;7.60;7.10;;;33.80;50.70;;;;;;4957847;28;20554;-68
2023/06/02 10:50:14;;;;;;;9.27;8.33;;;34.70;47.30;;;;;;4971215;28;20498;-68
2023/06/02 10:52:58;;;;;;;8.87;7.10;;;35.40;45.80;;;;;;4978847;28;20172;-67
2023/06/02 10:55:27;;;;;;;8.47;7.77;;;36.30;44.00;;;;;;4965398;28;20426;-67
2023/06/02 10:58:05;;;;;;;7.67;6.93;;;36.50;43.20;;;;;;4974599;28;20439;-67
2023/06/02 11:00:36;;;;;;;8.50;7.90;;;36.10;43.40;;;;;;4975051;28;20419;-66
2023/06/02 11:03:02;;;;;;;7.90;7.30;;;36.80;42.20;;;;;;4974855;28;20412;-66
2023/06/02 11:05:30;;;;;;;7.27;6.63;;;37.70;40.70;;;;;;4964311;28;20497;-66
2023/06/02 11:08:11;;;;;;;8.17;7.47;;;38.10;38.40;;;;;;4973539;28;20459;-66
2023/06/02 11:10:48;;;;;;;8.23;7.43;;;37.10;38.40;;;;;;4974577;28;20419;-66
2023/06/02 11:13:15;;;;;;;7.63;6.93;;;37.50;38.90;;;;;;4974686;28;20453;-66
2023/06/02 11:15:53;;;;;;;7.60;7.10;;;37.90;37.90;;;;;;4973749;28;20441;-66
2023/06/02 11:18:22;;;;;;;7.20;6.70;;;36.60;39.30;;;;;;4974394;28;20434;-67
2023/06/02 11:20:49;;;;;;;7.13;6.63;;;36.20;38.10;;;;;;4957118;28;21013;-67
2023/06/02 11:23:17;;;;;;;7.00;6.50;;;36.00;38.60;;;;;;4955413;28;20541;-67
2023/06/02 11:25:43;;;;;;;7.67;7.07;;;37.30;37.70;;;;;;4954938;29;20423;-67
2023/06/02 11:28:24;;;;;;;8.00;7.40;;;37.90;36.40;;;;;;4961146;28;20471;-66
2023/06/02 11:31:07;;;;;;;7.57;7.07;;;36.40;38.00;;;;;;4966209;28;20435;-66
2023/06/02 11:33:34;;;;;;;7.40;6.70;;;36.20;39.10;;;;;;4973056;28;20443;-67
2023/06/02 11:36:08;;;;;;;6.80;6.30;;;36.70;37.70;;;;;;4969441;28;20551;-66
2023/06/02 11:38:34;;;;;;;7.37;6.50;;;36.60;35.90;;;;;;4972597;28;20442;-66
2023/06/02 11:41:09;;;;;;;7.50;6.90;;;37.70;35.40;;;;;;4972762;28;21014;-66
2023/06/02 11:43:36;;;;;;;6.37;5.97;;;37.90;35.50;;;;;;4973185;28;20525;-66
2023/06/02 11:46:09;;;;;;;7.40;6.80;;;38.30;34.30;;;;;;4972650;28;20550;-66
2023/06/02 11:48:38;;;;;;;6.20;5.70;;;38.80;33.70;;;;;;4973036;28;20495;-66
2023/06/02 11:51:08;;;;;;;6.47;5.97;;;38.10;34.00;;;;;;4970811;28;20443;-66
2023/06/02 11:53:34;;;;;;;7.40;6.77;;;37.40;34.70;;;;;;4973108;28;20436;-66
2023/06/02 11:56:00;;;;;;;7.10;6.50;;;36.10;35.60;;;;;;4971616;28;20463;-67
2023/06/02 11:58:27;;;;;;;7.00;6.50;;;35.90;36.00;;;;;;4973042;28;20814;-66
2023/06/02 12:01:08;;;;;;;6.80;6.30;;;36.70;35.60;;;;;;4969877;28;20443;-66
2023/06/02 12:03:34;;;;;;;8.97;5.70;;;37.30;34.60;;;;;;4968295;28;20550;-66
2023/06/02 12:06:11;;;;;;;6.33;5.93;;;38.40;33.90;;;;;;4971799;28;20459;-66
2023/06/02 12:08:37;;;;;;;8.30;6.70;;;39.60;32.50;;;;;;4972567;28;20874;-66
2023/06/02 12:11:02;;;;;;;7.30;6.70;;;39.70;32.20;;;;;;4969109;28;20439;-66
2023/06/02 12:13:30;;;;;;;7.10;6.60;;;38.70;32.90;;;;;;4968982;28;20184;-66
2023/06/02 12:16:17;;;;;;;6.47;5.87;;;38.70;33.00;;;;;;4968915;28;20295;-67
2023/06/02 12:18:42;;;;;;;7.17;6.77;;;39.30;32.80;;;;;;4969875;28;20443;-66
2023/06/02 12:21:22;;;;;;;6.77;6.27;;;40.50;32.00;;;;;;4967455;28;20951;-66
2023/06/02 12:23:48;;;;;;;7.70;5.97;;;41.30;30.70;;;;;;4970372;28;20184;-66
2023/06/02 12:26:15;;;;;;;6.40;5.80;;;42.00;31.00;;;;;;4971485;28;20451;-66
2023/06/02 12:28:41;;;;;;;5.87;5.47;;;41.80;30.30;;;;;;4971668;28;20275;-66
2023/06/02 12:31:06;;;;;;;7.20;6.73;;;41.30;30.20;;;;;;4968052;28;20636;-65
2023/06/02 12:33:32;;;;;;;6.23;5.67;;;41.70;30.40;;;;;;4968234;28;20252;-66
2023/06/02 12:35:58;;;;;;;7.03;6.50;;;40.80;29.90;;;;;;4969335;28;20199;-66
2023/06/02 12:38:23;;;;;;;7.47;6.50;;;39.90;29.90;;;;;;4970949;28;20176;-66
2023/06/02 12:40:50;;;;;;;5.27;4.97;;;40.10;30.10;;;;;;4970531;28;20267;-66
2023/06/02 12:43:18;;;;;;;6.10;5.60;;;40.60;30.10;;;;;;4972252;28;20287;-66
2023/06/02 12:45:43;;;;;;;9.17;5.33;;;40.10;30.70;;;;;;4973524;28;20437;-66
2023/06/02 12:48:09;;;;;;;6.70;5.70;;;40.40;30.00;;;;;;4974395;28;20471;-66